createdAt,value
2017-10-04T00:00:21.565Z,17.56
2017-10-04T00:01:30.847Z,17.49
2017-10-04T00:02:40.188Z,17.48
2017-10-04T00:03:49.471Z,17.54
2017-10-04T00:04:58.279Z,17.58
2017-10-04T00:06:06.937Z,17.51
2017-10-04T00:07:16.258Z,17.43
2017-10-04T00:08:25.237Z,17.51
2017-10-04T00:09:34.204Z,17.48
2017-10-04T00:10:43.339Z,17.51
2017-10-04T00:11:52.624Z,17.55
2017-10-04T00:13:01.586Z,17.51
2017-10-04T00:14:10.865Z,17.52
2017-10-04T00:15:19.824Z,17.49
2017-10-04T00:16:28.935Z,17.51
2017-10-04T00:17:37.904Z,17.44
2017-10-04T00:18:46.881Z,17.38
2017-10-04T00:19:55.851Z,17.46
2017-10-04T00:21:04.824Z,17.41
2017-10-04T00:22:14.130Z,17.48
2017-10-04T00:23:23.423Z,17.48
2017-10-04T00:24:32.092Z,17.36
2017-10-04T00:25:41.061Z,17.28
2017-10-04T00:26:50.055Z,17.3
2017-10-04T00:27:59.342Z,17.34
2017-10-04T00:29:08.012Z,17.28
2017-10-04T00:30:16.974Z,17.26
2017-10-04T00:31:25.940Z,17.3
2017-10-04T00:32:35.225Z,17.31
2017-10-04T00:33:44.208Z,17.34
2017-10-04T00:34:52.892Z,17.34
2017-10-04T00:36:02.169Z,17.3
2017-10-04T00:37:11.464Z,17.31
2017-10-04T00:38:20.136Z,17.36
2017-10-04T00:39:29.099Z,17.3
2017-10-04T00:40:38.726Z,17.3
2017-10-04T00:41:48.012Z,17.31
2017-10-04T00:42:56.661Z,17.31
2017-10-04T00:44:05.641Z,17.31
2017-10-04T00:45:14.442Z,17.3
2017-10-04T00:46:23.731Z,17.25
2017-10-04T00:47:32.397Z,17.26
2017-10-04T00:48:41.687Z,17.23
2017-10-04T00:49:50.663Z,17.33
2017-10-04T00:50:59.938Z,17.26
2017-10-04T00:52:09.850Z,17.33
2017-10-04T00:53:19.137Z,17.18
2017-10-04T00:54:28.098Z,17.22
2017-10-04T00:55:37.699Z,17.18
2017-10-04T00:56:47.081Z,17.16
2017-10-04T00:57:56.044Z,17.18
2017-10-04T00:59:05.011Z,17.21
2017-10-04T01:00:13.669Z,17.18
2017-10-04T01:01:22.947Z,17.22
2017-10-04T01:02:31.912Z,17.19
2017-10-04T01:03:41.210Z,17.14
2017-10-04T01:04:50.258Z,17.21
2017-10-04T01:05:58.916Z,17.18
2017-10-04T01:07:07.950Z,17.16
2017-10-04T01:08:17.057Z,17.16
2017-10-04T01:09:25.711Z,17.23
2017-10-04T01:10:34.984Z,17.14
2017-10-04T01:11:44.263Z,17.15
2017-10-04T01:12:52.912Z,17.06
2017-10-04T01:14:02.349Z,17.19
2017-10-04T01:15:11.318Z,17.19
2017-10-04T01:16:20.288Z,17.16
2017-10-04T01:17:29.889Z,17.15
2017-10-04T01:18:38.840Z,17.16
2017-10-04T01:19:47.949Z,17.18
2017-10-04T01:20:56.921Z,17.19
2017-10-04T01:22:06.509Z,17.12
2017-10-04T01:23:15.481Z,17.08
2017-10-04T01:24:25.085Z,17.16
2017-10-04T01:25:34.382Z,17.11
2017-10-04T01:26:43.357Z,17.08
2017-10-04T01:27:52.317Z,17.08
2017-10-04T01:29:01.620Z,17.07
2017-10-04T01:30:11.124Z,17.14
2017-10-04T01:31:19.766Z,17.07
2017-10-04T01:32:28.741Z,17.06
2017-10-04T01:33:37.713Z,17.12
2017-10-04T01:34:46.367Z,17.03
2017-10-04T01:35:55.965Z,17.06
2017-10-04T01:37:05.094Z,17.06
2017-10-04T01:38:14.366Z,17.04
2017-10-04T01:39:23.966Z,17.03
2017-10-04T01:40:32.659Z,17.12
2017-10-04T01:41:41.635Z,17.01
2017-10-04T01:42:51.381Z,17.08
2017-10-04T01:44:00.041Z,17.08
2017-10-04T01:45:09.342Z,17.07
2017-10-04T01:46:18.307Z,17.04
2017-10-04T01:47:26.957Z,17.03
2017-10-04T01:48:36.685Z,17.04
2017-10-04T01:49:45.360Z,16.96
2017-10-04T01:50:54.647Z,17.03
2017-10-04T01:52:03.305Z,17.01
2017-10-04T01:53:11.967Z,17.07
2017-10-04T01:54:20.777Z,17.03
2017-10-04T01:55:29.790Z,17.03
2017-10-04T01:56:38.757Z,17.06
2017-10-04T01:57:47.735Z,17.03
2017-10-04T01:58:57.359Z,17.03
2017-10-04T02:00:06.703Z,17.06
2017-10-04T02:01:15.680Z,16.98
2017-10-04T02:02:24.660Z,16.96
2017-10-04T02:03:33.320Z,17.04
2017-10-04T02:04:42.290Z,16.89
2017-10-04T02:05:51.106Z,17.01
2017-10-04T02:06:59.773Z,17
2017-10-04T02:08:08.735Z,17
2017-10-04T02:09:18.013Z,17
2017-10-04T02:10:27.296Z,17
2017-10-04T02:11:37.059Z,16.98
2017-10-04T02:12:46.026Z,17
2017-10-04T02:13:54.996Z,16.94
2017-10-04T02:15:04.306Z,16.94
2017-10-04T02:16:13.297Z,16.97
2017-10-04T02:17:23.040Z,16.98
2017-10-04T02:18:32.020Z,16.96
2017-10-04T02:19:41.304Z,16.98
2017-10-04T02:20:49.974Z,16.94
2017-10-04T02:21:58.949Z,17.01
2017-10-04T02:23:07.904Z,16.96
2017-10-04T02:24:17.184Z,16.97
2017-10-04T02:25:26.148Z,16.98
2017-10-04T02:26:35.427Z,17.06
2017-10-04T02:27:44.103Z,17.07
2017-10-04T02:28:53.071Z,17.01
2017-10-04T02:30:02.027Z,17.07
2017-10-04T02:31:11.323Z,17.04
2017-10-04T02:32:20.606Z,17.03
2017-10-04T02:33:30.513Z,16.98
2017-10-04T02:34:40.108Z,17.03
2017-10-04T02:35:49.088Z,17.04
2017-10-04T02:36:59.012Z,17.01
2017-10-04T02:38:07.991Z,17.07
2017-10-04T02:39:16.961Z,17.04
2017-10-04T02:40:26.246Z,17.06
2017-10-04T02:41:35.215Z,16.97
2017-10-04T02:42:44.188Z,17.03
2017-10-04T02:43:53.172Z,17.07
2017-10-04T02:45:02.790Z,17.07
2017-10-04T02:46:12.059Z,16.93
2017-10-04T02:47:21.025Z,16.93
2017-10-04T02:48:30.306Z,17.03
2017-10-04T02:49:38.960Z,17.06
2017-10-04T02:50:47.619Z,17.07
2017-10-04T02:51:57.048Z,17.01
2017-10-04T02:53:06.343Z,17.03
2017-10-04T02:54:15.309Z,17.06
2017-10-04T02:55:24.906Z,17.07
2017-10-04T02:56:33.892Z,17.03
2017-10-04T02:57:42.851Z,17.08
2017-10-04T02:58:52.133Z,17.03
2017-10-04T03:00:00.779Z,17.11
2017-10-04T03:01:10.690Z,16.93
2017-10-04T03:02:19.966Z,17.03
2017-10-04T03:03:29.249Z,17.04
2017-10-04T03:04:38.217Z,17.06
2017-10-04T03:05:47.186Z,17.01
2017-10-04T03:06:56.456Z,17.01
2017-10-04T03:08:05.418Z,17.03
2017-10-04T03:09:14.394Z,17.07
2017-10-04T03:10:23.688Z,17
2017-10-04T03:11:33.292Z,17.01
2017-10-04T03:12:42.264Z,17.11
2017-10-04T03:13:51.236Z,17.04
2017-10-04T03:15:00.206Z,17.12
2017-10-04T03:16:08.885Z,17.04
2017-10-04T03:17:17.645Z,17.14
2017-10-04T03:18:26.632Z,17.06
2017-10-04T03:19:35.899Z,17.08
2017-10-04T03:20:45.475Z,17.07
2017-10-04T03:21:54.438Z,17.12
2017-10-04T03:23:03.713Z,17.14
2017-10-04T03:24:12.680Z,17.08
2017-10-04T03:25:21.334Z,17.07
2017-10-04T03:26:30.452Z,17.07
2017-10-04T03:27:39.117Z,17.11
2017-10-04T03:28:48.700Z,17.11
2017-10-04T03:29:58.605Z,17.08
2017-10-04T03:31:07.272Z,17.11
2017-10-04T03:32:15.940Z,17.07
2017-10-04T03:33:25.554Z,17.11
2017-10-04T03:34:34.221Z,17.11
2017-10-04T03:35:43.186Z,17.07
2017-10-04T03:36:52.169Z,17
2017-10-04T03:38:00.968Z,17.03
2017-10-04T03:39:09.624Z,17.07
2017-10-04T03:40:18.910Z,17.07
2017-10-04T03:41:28.499Z,17.07
2017-10-04T03:42:37.475Z,17.11
2017-10-04T03:43:46.585Z,17.14
2017-10-04T03:44:55.547Z,17.12
2017-10-04T03:46:04.203Z,17.06
2017-10-04T03:47:12.856Z,17.03
2017-10-04T03:48:22.136Z,17.07
2017-10-04T03:49:31.210Z,17.07
2017-10-04T03:50:40.180Z,17.06
2017-10-04T03:51:48.842Z,17.01
2017-10-04T03:52:57.490Z,17.04
2017-10-04T03:54:06.464Z,17.03
2017-10-04T03:55:15.420Z,17.04
2017-10-04T03:56:24.071Z,17.06
2017-10-04T03:57:33.409Z,17.07
2017-10-04T03:58:42.692Z,17.01
2017-10-04T03:59:52.278Z,17.01
2017-10-04T04:01:01.091Z,17.07
2017-10-04T04:02:10.387Z,17.01
2017-10-04T04:03:19.054Z,17.01
2017-10-04T04:04:28.341Z,17.06
2017-10-04T04:05:37.302Z,17.07
2017-10-04T04:06:46.013Z,17.11
2017-10-04T04:07:54.974Z,17.08
2017-10-04T04:09:04.259Z,17.08
2017-10-04T04:10:13.858Z,17.07
2017-10-04T04:11:22.830Z,17.08
2017-10-04T04:12:31.795Z,17.18
2017-10-04T04:13:40.762Z,17.14
2017-10-04T04:14:49.411Z,17.15
2017-10-04T04:15:59.342Z,17.03
2017-10-04T04:17:08.624Z,17.15
2017-10-04T04:18:18.228Z,17.19
2017-10-04T04:19:26.864Z,17.16
2017-10-04T04:20:36.139Z,17.22
2017-10-04T04:21:45.105Z,17.21
2017-10-04T04:22:54.382Z,17.25
2017-10-04T04:24:04.093Z,17.12
2017-10-04T04:25:12.754Z,17.14
2017-10-04T04:26:22.043Z,17.15
2017-10-04T04:27:30.994Z,17.16
2017-10-04T04:28:40.600Z,17.12
2017-10-04T04:29:49.283Z,17.14
2017-10-04T04:30:57.938Z,17.08
2017-10-04T04:32:06.909Z,17.07
2017-10-04T04:33:16.498Z,17.06
2017-10-04T04:34:25.766Z,17.06
2017-10-04T04:35:35.043Z,17.04
2017-10-04T04:36:43.697Z,17.06
2017-10-04T04:37:52.355Z,17.07
2017-10-04T04:39:01.326Z,17.01
2017-10-04T04:40:09.983Z,17.03
2017-10-04T04:41:18.796Z,17.03
2017-10-04T04:42:27.766Z,16.98
2017-10-04T04:43:37.049Z,17.06
2017-10-04T04:44:46.015Z,17.07
2017-10-04T04:45:55.020Z,17.06
2017-10-04T04:47:03.976Z,17.11
2017-10-04T04:48:12.938Z,17.06
2017-10-04T04:49:21.901Z,17.11
2017-10-04T04:50:31.174Z,17.16
2017-10-04T04:51:40.148Z,17.23
2017-10-04T04:52:49.762Z,17.11
2017-10-04T04:53:58.766Z,17.23
2017-10-04T04:55:08.120Z,17.26
2017-10-04T04:56:16.799Z,17.28
2017-10-04T04:57:25.776Z,17.41
2017-10-04T04:58:34.733Z,17.48
2017-10-04T04:59:44.029Z,17.44
2017-10-04T05:00:52.691Z,17.48
2017-10-04T05:02:02.319Z,17.44
2017-10-04T05:03:11.691Z,17.38
2017-10-04T05:04:20.671Z,17.4
2017-10-04T05:05:30.290Z,17.38
2017-10-04T05:06:38.965Z,17.26
2017-10-04T05:07:47.928Z,17.26
2017-10-04T05:08:56.931Z,17.38
2017-10-04T05:10:05.971Z,17.33
2017-10-04T05:11:14.938Z,17.3
2017-10-04T05:12:23.649Z,17.23
2017-10-04T05:13:32.657Z,17.23
2017-10-04T05:14:41.340Z,17.19
2017-10-04T05:15:50.969Z,17.18
2017-10-04T05:16:59.614Z,17.19
2017-10-04T05:18:08.599Z,17.19
2017-10-04T05:19:17.878Z,17.21
2017-10-04T05:20:26.646Z,17.22
2017-10-04T05:21:36.120Z,17.18
2017-10-04T05:22:45.717Z,17.12
2017-10-04T05:23:54.756Z,17.11
2017-10-04T05:25:03.768Z,17.12
2017-10-04T05:26:12.445Z,17.18
2017-10-04T05:27:22.086Z,17.08
2017-10-04T05:28:31.093Z,17.18
2017-10-04T05:29:40.423Z,17.14
2017-10-04T05:30:49.722Z,17.18
2017-10-04T05:31:58.794Z,17.15
2017-10-04T05:33:08.552Z,17.14
2017-10-04T05:34:18.109Z,17.12
2017-10-04T05:35:27.714Z,17.04
2017-10-04T05:36:36.775Z,17.21
2017-10-04T05:37:45.731Z,17.22
2017-10-04T05:38:55.347Z,17.22
2017-10-04T05:40:04.337Z,17.15
2017-10-04T05:41:13.412Z,17.18
2017-10-04T05:42:22.382Z,17.22
2017-10-04T05:43:31.125Z,17.14
2017-10-04T05:44:40.738Z,17.18
2017-10-04T05:45:50.462Z,17.11
2017-10-04T05:46:59.130Z,17.11
2017-10-04T05:48:08.451Z,17.04
2017-10-04T05:49:17.140Z,17.08
2017-10-04T05:50:26.281Z,17.16
2017-10-04T05:51:35.899Z,17.12
2017-10-04T05:52:44.952Z,17.12
2017-10-04T05:53:53.612Z,17.12
2017-10-04T05:55:02.896Z,17.06
2017-10-04T05:56:12.161Z,17.08
2017-10-04T05:57:21.125Z,17.06
2017-10-04T05:58:30.105Z,17.08
2017-10-04T05:59:39.074Z,17.04
2017-10-04T06:00:48.360Z,17.04
2017-10-04T06:01:57.375Z,17.04
2017-10-04T06:03:06.401Z,17.07
2017-10-04T06:04:15.136Z,17.01
2017-10-04T06:05:24.115Z,17.11
2017-10-04T06:06:32.826Z,17.12
2017-10-04T06:07:42.252Z,17.08
2017-10-04T06:08:51.275Z,17.03
2017-10-04T06:10:00.577Z,17.06
2017-10-04T06:11:09.852Z,17.06
2017-10-04T06:12:18.836Z,17.12
2017-10-04T06:13:27.838Z,17.07
2017-10-04T06:14:37.461Z,17.11
2017-10-04T06:15:46.440Z,17.11
2017-10-04T06:16:55.739Z,17.08
2017-10-04T06:18:04.398Z,17.16
2017-10-04T06:19:13.459Z,17.16
2017-10-04T06:20:22.129Z,17.06
2017-10-04T06:21:30.797Z,17.08
2017-10-04T06:22:39.471Z,17.11
2017-10-04T06:23:48.444Z,17.14
2017-10-04T06:24:57.200Z,17.15
2017-10-04T06:26:06.169Z,17.21
2017-10-04T06:27:14.829Z,17.18
2017-10-04T06:28:24.125Z,17.12
2017-10-04T06:29:33.124Z,17.11
2017-10-04T06:30:42.239Z,17.12
2017-10-04T06:31:51.539Z,17.15
2017-10-04T06:33:00.575Z,17.08
2017-10-04T06:34:09.860Z,17.14
2017-10-04T06:35:18.576Z,17.15
2017-10-04T06:36:27.919Z,17.15
2017-10-04T06:37:36.585Z,17.12
2017-10-04T06:38:45.603Z,17.18
2017-10-04T06:39:54.891Z,17.18
2017-10-04T06:41:03.868Z,17.16
2017-10-04T06:42:12.841Z,17.15
2017-10-04T06:43:22.132Z,17.21
2017-10-04T06:44:31.106Z,17.16
2017-10-04T06:45:40.388Z,17.19
2017-10-04T06:46:49.033Z,17.14
2017-10-04T06:47:58.408Z,17.21
2017-10-04T06:49:08.309Z,17.18
2017-10-04T06:50:16.969Z,17.21
2017-10-04T06:51:25.977Z,17.21
2017-10-04T06:52:35.589Z,17.18
2017-10-04T06:53:45.083Z,17.23
2017-10-04T06:54:54.378Z,17.23
2017-10-04T06:56:03.974Z,17.25
2017-10-04T06:57:13.603Z,17.25
2017-10-04T06:58:22.592Z,17.3
2017-10-04T06:59:32.197Z,17.34
2017-10-04T07:00:41.474Z,17.34
2017-10-04T07:01:50.208Z,17.31
2017-10-04T07:02:59.912Z,17.3
2017-10-04T07:04:09.514Z,17.31
2017-10-04T07:05:19.503Z,17.31
2017-10-04T07:06:28.489Z,17.36
2017-10-04T07:07:37.249Z,17.28
2017-10-04T07:08:46.545Z,17.3
2017-10-04T07:09:55.524Z,17.26
2017-10-04T07:11:04.662Z,17.43
2017-10-04T07:12:13.475Z,17.41
2017-10-04T07:13:22.679Z,17.41
2017-10-04T07:14:31.698Z,17.46
2017-10-04T07:15:41.004Z,17.48
2017-10-04T07:16:50.290Z,17.63
2017-10-04T07:17:58.958Z,17.71
2017-10-04T07:19:08.245Z,17.93
2017-10-04T07:20:17.529Z,18.05
2017-10-04T07:21:26.520Z,18.2
2017-10-04T07:22:35.520Z,18.35
2017-10-04T07:23:44.503Z,18.54
2017-10-04T07:24:53.199Z,18.67
2017-10-04T07:26:01.899Z,18.85
2017-10-04T07:27:10.884Z,18.95
2017-10-04T07:28:20.004Z,19.07
2017-10-04T07:29:28.980Z,19.25
2017-10-04T07:30:38.277Z,19.31
2017-10-04T07:31:46.957Z,19.39
2017-10-04T07:32:55.625Z,19.56
2017-10-04T07:34:04.612Z,19.63
2017-10-04T07:35:13.588Z,19.69
2017-10-04T07:36:22.561Z,19.84
2017-10-04T07:37:31.228Z,19.96
2017-10-04T07:38:40.204Z,20.05
2017-10-04T07:39:48.861Z,20.13
2017-10-04T07:40:57.832Z,20.17
2017-10-04T07:42:07.118Z,20.31
2017-10-04T07:43:16.145Z,20.35
2017-10-04T07:44:25.164Z,20.39
2017-10-04T07:45:34.018Z,20.36
2017-10-04T07:46:42.988Z,20.55
2017-10-04T07:47:52.276Z,20.61
2017-10-04T07:49:01.895Z,20.73
2017-10-04T07:50:11.180Z,20.67
2017-10-04T07:51:20.150Z,20.77
2017-10-04T07:52:29.153Z,20.8
2017-10-04T07:53:38.465Z,20.84
2017-10-04T07:54:47.109Z,20.94
2017-10-04T07:55:55.774Z,21.03
2017-10-04T07:57:04.911Z,21.04
2017-10-04T07:58:13.895Z,21.13
2017-10-04T07:59:23.813Z,21.22
2017-10-04T08:00:32.809Z,21.27
2017-10-04T08:01:41.468Z,21.32
2017-10-04T08:02:50.920Z,21.37
2017-10-04T08:03:59.886Z,21.37
2017-10-04T08:05:08.853Z,21.42
2017-10-04T08:06:17.522Z,21.42
2017-10-04T08:07:26.482Z,21.52
2017-10-04T08:08:35.315Z,21.46
2017-10-04T08:09:44.599Z,21.47
2017-10-04T08:10:53.554Z,21.56
2017-10-04T08:12:02.213Z,21.49
2017-10-04T08:13:10.859Z,21.61
2017-10-04T08:14:20.132Z,21.62
2017-10-04T08:15:29.096Z,21.71
2017-10-04T08:16:38.398Z,21.75
2017-10-04T08:17:47.367Z,21.82
2017-10-04T08:18:56.990Z,21.8
2017-10-04T08:20:05.960Z,21.82
2017-10-04T08:21:15.547Z,21.9
2017-10-04T08:22:25.462Z,21.91
2017-10-04T08:23:34.124Z,21.96
2017-10-04T08:24:42.780Z,22.02
2017-10-04T08:25:51.589Z,22
2017-10-04T08:27:00.865Z,21.98
2017-10-04T08:28:10.140Z,21.98
2017-10-04T08:29:19.756Z,21.94
2017-10-04T08:30:29.031Z,22
2017-10-04T08:31:38.100Z,21.98
2017-10-04T08:32:47.102Z,21.99
2017-10-04T08:33:56.389Z,22.02
2017-10-04T08:35:05.991Z,22.06
2017-10-04T08:36:14.961Z,22.07
2017-10-04T08:37:24.034Z,22
2017-10-04T08:38:33.636Z,22.05
2017-10-04T08:39:42.647Z,22.17
2017-10-04T08:40:52.268Z,22.17
2017-10-04T08:42:00.919Z,22.18
2017-10-04T08:43:10.038Z,22.22
2017-10-04T08:44:19.641Z,22.22
2017-10-04T08:45:28.936Z,22.2
2017-10-04T08:46:37.928Z,22.25
2017-10-04T08:47:46.904Z,22.15
2017-10-04T08:48:55.583Z,22.22
2017-10-04T08:50:04.899Z,22.25
2017-10-04T08:51:14.166Z,22.21
2017-10-04T08:52:22.822Z,22.25
2017-10-04T08:53:31.490Z,22.24
2017-10-04T08:54:41.120Z,22.24
2017-10-04T08:55:50.717Z,22.24
2017-10-04T08:57:00.021Z,22.25
2017-10-04T08:58:09.936Z,22.33
2017-10-04T08:59:18.933Z,22.31
2017-10-04T09:00:28.377Z,22.33
2017-10-04T09:01:37.352Z,22.39
2017-10-04T09:02:46.628Z,22.35
2017-10-04T09:03:55.947Z,22.47
2017-10-04T09:05:05.228Z,22.46
2017-10-04T09:06:14.339Z,22.43
2017-10-04T09:07:23.607Z,22.57
2017-10-04T09:08:32.889Z,22.58
2017-10-04T09:09:42.476Z,22.49
2017-10-04T09:10:51.743Z,22.67
2017-10-04T09:12:00.426Z,22.67
2017-10-04T09:13:10.040Z,22.62
2017-10-04T09:14:18.698Z,22.58
2017-10-04T09:15:28.002Z,22.67
2017-10-04T09:16:36.985Z,22.65
2017-10-04T09:17:46.291Z,22.7
2017-10-04T09:18:55.250Z,22.68
2017-10-04T09:20:04.531Z,22.62
2017-10-04T09:21:13.805Z,22.75
2017-10-04T09:22:23.090Z,22.73
2017-10-04T09:23:32.053Z,22.75
2017-10-04T09:24:41.048Z,22.77
2017-10-04T09:25:50.022Z,22.83
2017-10-04T09:26:59.615Z,22.8
2017-10-04T09:28:09.220Z,22.86
2017-10-04T09:29:18.822Z,22.85
2017-10-04T09:30:27.858Z,22.88
2017-10-04T09:31:37.137Z,22.92
2017-10-04T09:32:46.442Z,22.94
2017-10-04T09:33:55.104Z,22.94
2017-10-04T09:35:04.406Z,22.91
2017-10-04T09:36:13.694Z,22.94
2017-10-04T09:37:23.284Z,22.94
2017-10-04T09:38:32.587Z,22.91
2017-10-04T09:39:41.740Z,22.95
2017-10-04T09:40:51.428Z,22.9
2017-10-04T09:42:00.740Z,22.76
2017-10-04T09:43:09.764Z,22.64
2017-10-04T09:44:19.132Z,22.65
2017-10-04T09:45:27.938Z,22.57
2017-10-04T09:46:37.404Z,22.39
2017-10-04T09:47:47.132Z,22.42
2017-10-04T09:48:56.110Z,22.24
2017-10-04T09:50:05.755Z,22.18
2017-10-04T09:51:15.063Z,22.14
2017-10-04T09:52:24.211Z,22.1
2017-10-04T09:53:33.239Z,21.96
2017-10-04T09:54:42.234Z,22
2017-10-04T09:55:52.513Z,21.94
2017-10-04T09:57:01.179Z,21.84
2017-10-04T09:58:10.347Z,21.82
2017-10-04T09:59:19.644Z,21.88
2017-10-04T10:00:29.945Z,21.77
2017-10-04T10:01:38.925Z,21.71
2017-10-04T10:02:47.890Z,21.64
2017-10-04T10:03:56.548Z,21.65
2017-10-04T10:05:05.534Z,21.65
2017-10-04T10:06:14.861Z,21.74
2017-10-04T10:07:24.456Z,21.77
2017-10-04T10:08:33.764Z,21.86
2017-10-04T10:09:43.121Z,21.9
2017-10-04T10:10:53.880Z,21.92
2017-10-04T10:12:02.620Z,22
2017-10-04T10:13:11.990Z,21.99
2017-10-04T10:14:20.975Z,21.98
2017-10-04T10:15:30.609Z,22.06
2017-10-04T10:16:39.293Z,22.1
2017-10-04T10:17:48.585Z,22.1
2017-10-04T10:18:57.241Z,22
2017-10-04T10:20:06.526Z,21.98
2017-10-04T10:21:16.416Z,21.77
2017-10-04T10:22:25.075Z,21.67
2017-10-04T10:23:34.044Z,21.4
2017-10-04T10:24:43.321Z,21.25
2017-10-04T10:25:52.296Z,21.13
2017-10-04T10:27:00.980Z,21.03
2017-10-04T10:28:09.665Z,20.95
2017-10-04T10:29:18.662Z,20.89
2017-10-04T10:30:27.652Z,20.85
2017-10-04T10:31:36.644Z,20.66
2017-10-04T10:32:45.766Z,20.76
2017-10-04T10:33:54.756Z,20.7
2017-10-04T10:35:04.055Z,20.58
2017-10-04T10:36:13.352Z,20.52
2017-10-04T10:37:22.019Z,20.5
2017-10-04T10:38:30.827Z,20.39
2017-10-04T10:39:39.887Z,20.29
2017-10-04T10:40:49.229Z,20.24
2017-10-04T10:41:58.549Z,20.14
2017-10-04T10:43:07.210Z,20.23
2017-10-04T10:44:16.203Z,20.16
2017-10-04T10:45:25.194Z,20.05
2017-10-04T10:46:33.891Z,20.06
2017-10-04T10:47:42.576Z,19.96
2017-10-04T10:48:51.549Z,19.92
2017-10-04T10:50:00.315Z,19.87
2017-10-04T10:51:09.315Z,19.86
2017-10-04T10:52:19.298Z,19.77
2017-10-04T10:53:29.034Z,19.71
2017-10-04T10:54:37.719Z,19.78
2017-10-04T10:55:46.396Z,19.69
2017-10-04T10:56:55.378Z,19.71
2017-10-04T10:58:04.357Z,19.63
2017-10-04T10:59:13.029Z,19.63
2017-10-04T11:00:22.323Z,19.66
2017-10-04T11:01:31.408Z,19.69
2017-10-04T11:02:40.450Z,19.66
2017-10-04T11:03:49.439Z,19.68
2017-10-04T11:04:58.417Z,19.66
2017-10-04T11:06:08.052Z,19.62
2017-10-04T11:07:17.110Z,19.76
2017-10-04T11:08:25.797Z,19.68
2017-10-04T11:09:34.465Z,19.68
2017-10-04T11:10:43.443Z,19.61
2017-10-04T11:11:52.728Z,19.59
2017-10-04T11:13:01.725Z,19.55
2017-10-04T11:14:10.702Z,19.62
2017-10-04T11:15:20.006Z,19.65
2017-10-04T11:16:29.309Z,19.56
2017-10-04T11:17:38.280Z,19.59
2017-10-04T11:18:47.875Z,19.58
2017-10-04T11:19:57.165Z,19.65
2017-10-04T11:21:05.853Z,19.62
2017-10-04T11:22:15.148Z,19.66
2017-10-04T11:23:23.819Z,19.65
2017-10-04T11:24:33.115Z,19.61
2017-10-04T11:25:41.786Z,19.66
2017-10-04T11:26:50.760Z,19.55
2017-10-04T11:28:00.080Z,19.62
2017-10-04T11:29:09.690Z,19.66
2017-10-04T11:30:18.502Z,19.58
2017-10-04T11:31:27.523Z,19.59
2017-10-04T11:32:36.217Z,19.65
2017-10-04T11:33:45.185Z,19.56
2017-10-04T11:34:54.196Z,19.58
2017-10-04T11:36:03.211Z,19.71
2017-10-04T11:37:12.519Z,19.77
2017-10-04T11:38:22.181Z,19.95
2017-10-04T11:39:31.514Z,20.1
2017-10-04T11:40:40.801Z,20.18
2017-10-04T11:41:49.658Z,20.38
2017-10-04T11:42:58.636Z,20.52
2017-10-04T11:44:08.298Z,20.55
2017-10-04T11:45:16.964Z,20.66
2017-10-04T11:46:25.988Z,20.87
2017-10-04T11:47:35.603Z,20.89
2017-10-04T11:48:44.901Z,20.99
2017-10-04T11:49:53.570Z,21.06
2017-10-04T11:51:02.547Z,21.07
2017-10-04T11:52:12.159Z,21.22
2017-10-04T11:53:21.019Z,21.22
2017-10-04T11:54:29.988Z,21.34
2017-10-04T11:55:39.300Z,21.37
2017-10-04T11:56:48.279Z,21.44
2017-10-04T11:57:57.285Z,21.54
2017-10-04T11:59:05.971Z,21.54
2017-10-04T12:00:14.677Z,21.64
2017-10-04T12:01:23.343Z,21.65
2017-10-04T12:02:32.668Z,21.77
2017-10-04T12:03:41.673Z,21.83
2017-10-04T12:04:50.953Z,21.9
2017-10-04T12:05:59.749Z,21.91
2017-10-04T12:07:09.485Z,21.84
2017-10-04T12:08:18.809Z,21.99
2017-10-04T12:09:29.074Z,21.99
2017-10-04T12:10:39.013Z,22.03
2017-10-04T12:11:48.356Z,21.98
2017-10-04T12:12:57.665Z,21.99
2017-10-04T12:14:06.708Z,21.98
2017-10-04T12:15:16.641Z,22.03
2017-10-04T12:16:25.313Z,22.15
2017-10-04T12:17:34.040Z,22.21
2017-10-04T12:18:42.704Z,22.21
2017-10-04T12:19:51.990Z,22.21
2017-10-04T12:21:01.944Z,22.22
2017-10-04T12:22:10.770Z,22.3
2017-10-04T12:23:19.760Z,22.21
2017-10-04T12:24:28.738Z,22.27
2017-10-04T12:25:38.032Z,22.24
2017-10-04T12:26:47.335Z,22.31
2017-10-04T12:27:56.732Z,22.33
2017-10-04T12:29:06.394Z,22.33
2017-10-04T12:30:15.365Z,22.37
2017-10-04T12:31:24.707Z,22.39
2017-10-04T12:32:34.211Z,22.43
2017-10-04T12:33:43.492Z,22.47
2017-10-04T12:34:52.150Z,22.45
2017-10-04T12:36:01.444Z,22.39
2017-10-04T12:37:11.071Z,22.39
2017-10-04T12:38:20.375Z,22.49
2017-10-04T12:39:29.504Z,22.58
2017-10-04T12:40:39.110Z,22.52
2017-10-04T12:41:48.717Z,22.58
2017-10-04T12:42:58.000Z,22.6
2017-10-04T12:44:07.595Z,22.51
2017-10-04T12:45:16.563Z,22.54
2017-10-04T12:46:25.228Z,22.65
2017-10-04T12:47:34.241Z,22.68
2017-10-04T12:48:43.212Z,22.6
2017-10-04T12:49:51.867Z,22.54
2017-10-04T12:51:00.582Z,22.61
2017-10-04T12:52:09.258Z,22.65
2017-10-04T12:53:18.243Z,22.57
2017-10-04T12:54:27.850Z,22.57
2017-10-04T12:55:36.809Z,22.55
2017-10-04T12:56:45.618Z,22.58
2017-10-04T12:57:54.914Z,22.58
2017-10-04T12:59:04.195Z,22.62
2017-10-04T13:00:13.178Z,22.61
2017-10-04T13:01:21.857Z,22.6
2017-10-04T13:03:39.194Z,22.61
2017-10-04T13:04:47.843Z,22.72
2017-10-04T13:05:56.818Z,22.67
2017-10-04T13:07:06.440Z,22.7
2017-10-04T13:08:15.736Z,22.68
2017-10-04T13:09:25.024Z,22.68
2017-10-04T13:10:33.681Z,22.67
2017-10-04T13:11:42.970Z,22.68
2017-10-04T13:12:52.280Z,22.72
2017-10-04T13:14:00.955Z,22.67
2017-10-04T13:15:09.609Z,22.72
2017-10-04T13:16:18.587Z,22.72
2017-10-04T13:17:28.276Z,22.72
2017-10-04T13:18:37.892Z,22.68
2017-10-04T13:19:47.180Z,22.67
2017-10-04T13:20:56.147Z,22.75
2017-10-04T13:22:05.143Z,22.77
2017-10-04T13:23:14.450Z,22.73
2017-10-04T13:24:23.409Z,22.72
2017-10-04T13:25:32.387Z,22.72
2017-10-04T13:26:41.340Z,22.7
2017-10-04T13:27:50.641Z,22.77
2017-10-04T13:28:59.938Z,22.73
2017-10-04T13:30:09.215Z,22.75
2017-10-04T13:31:18.334Z,22.77
2017-10-04T13:32:27.742Z,22.72
2017-10-04T13:33:37.395Z,22.73
2017-10-04T13:34:47.047Z,22.72
2017-10-04T13:35:55.739Z,22.72
2017-10-04T13:37:04.732Z,22.77
2017-10-04T13:38:13.783Z,22.79
2017-10-04T13:39:23.376Z,22.79
2017-10-04T13:40:32.413Z,22.79
2017-10-04T13:41:41.401Z,22.79
2017-10-04T13:42:50.362Z,22.85
2017-10-04T13:43:59.085Z,22.85
2017-10-04T13:45:08.059Z,22.79
2017-10-04T13:46:16.781Z,22.79
2017-10-04T13:47:26.116Z,22.86
2017-10-04T13:48:35.109Z,22.73
2017-10-04T13:49:44.176Z,22.8
2017-10-04T13:50:53.605Z,22.82
2017-10-04T13:52:02.939Z,22.77
2017-10-04T13:53:12.548Z,22.86
2017-10-04T13:54:21.829Z,22.8
2017-10-04T13:55:31.135Z,22.73
2017-10-04T13:56:40.746Z,22.83
2017-10-04T13:57:50.069Z,22.82
2017-10-04T13:58:59.412Z,22.76
2017-10-04T14:00:08.504Z,22.8
2017-10-04T14:01:17.197Z,22.76
2017-10-04T14:02:26.258Z,22.73
2017-10-04T14:03:35.323Z,22.75
2017-10-04T14:04:44.303Z,22.73
2017-10-04T14:05:52.982Z,22.75
2017-10-04T14:07:02.287Z,22.73
2017-10-04T14:08:11.568Z,22.82
2017-10-04T14:09:20.547Z,22.77
2017-10-04T14:10:29.815Z,22.85
2017-10-04T14:11:38.474Z,22.65
2017-10-04T14:12:47.460Z,22.76
2017-10-04T14:13:56.430Z,22.7
2017-10-04T14:15:05.719Z,22.79
2017-10-04T14:16:14.698Z,22.7
2017-10-04T14:17:24.306Z,22.77
2017-10-04T14:18:32.962Z,22.7
2017-10-04T14:19:41.928Z,22.76
2017-10-04T14:20:50.893Z,22.79
2017-10-04T14:22:00.195Z,22.76
2017-10-04T14:23:09.166Z,22.79
2017-10-04T14:24:18.130Z,22.82
2017-10-04T14:25:26.844Z,22.72
2017-10-04T14:26:35.809Z,22.77
2017-10-04T14:27:45.124Z,22.73
2017-10-04T14:28:54.395Z,22.73
2017-10-04T14:30:03.053Z,22.7
2017-10-04T14:31:11.728Z,22.73
2017-10-04T14:32:21.342Z,22.58
2017-10-04T14:33:30.632Z,22.42
2017-10-04T14:34:39.933Z,22.27
2017-10-04T14:35:49.226Z,22.21
2017-10-04T14:36:58.526Z,21.99
2017-10-04T14:38:07.540Z,21.91
2017-10-04T14:39:16.211Z,21.83
2017-10-04T14:40:25.538Z,21.71
2017-10-04T14:41:36.656Z,21.58
2017-10-04T14:42:47.670Z,21.58
2017-10-04T14:43:56.965Z,21.47
2017-10-04T14:45:05.628Z,21.19
2017-10-04T14:46:15.545Z,21.13
2017-10-04T14:47:24.228Z,20.95
2017-10-04T14:48:32.904Z,20.79
2017-10-04T14:49:42.223Z,20.69
2017-10-04T14:50:51.243Z,20.7
2017-10-04T14:51:59.918Z,20.57
2017-10-04T14:53:09.222Z,20.41
2017-10-04T14:54:19.050Z,20.35